NK12 weather

Donnelly's Airport
Wales, New York, United States

Public forecast

Using degrees Fahrenheit for public forecast. Weather courtesy of forecast.io.

Closest aviation weather report (METAR) to Donnelly's Airport

Closest report is Buffalo Niagara International Airport, 13.1 nm (24.3 km) NW. Retrieved 2020/07/12 18:54 UTC (12 minutes ago):

KBUF 121854Z 24011KT 10SM FEW030 FEW037 SCT150 BKN210 BKN250 26/17 A2974 RMK AO2 SLP067 T02610167

Closest aviation forecast (TAF) to Donnelly's Airport

Closest forecast is Buffalo Niagara International Airport, 13.1 nm (24.3 km) NW. Retrieved 2020/07/12 18:39 UTC (27 minutes ago):

TAF KBUF 121736Z 1218/1318 24012KT P6SM SCT050 FM122100 26014G20KT P6SM VCSH BKN050 FM130100 31006KT P6SM BKN040 FM131400 30010KT P6SM BKN040